Argenta, Texas
Current Conditions -  °F | °C
As of 8:35 AM on Friday 19 Dec 2014 (Local Time) from KBEA Reporting Station
Moderate Rain Moderate Rain  
Wind Chill: 12°   Ceiling: 500
Heat Index: 12°   Visibility: 10mi
Dew Point: 12°   Wind: 18mph
Humidity: 100%   Direction: 10°N
Pressure: 30.02"   Gusts: 25mph
Location:  28.0654°N, 97.7489°W
Report Text: KBEA 191435Z AUTO 01016G22KT 10SM RA BKN005 OVC016 12/12 A3002 RMK AO2 P0010 T01190119
Loading
Personal Weather Stations






























Interactive Weather Map New forecast layout! Learn more

10-Day Weather Forecast

Advertisements
Track Severe Weather on mobile